sensor_id;sensor_type;location;lat;lon;timestamp;pressure;altitude;pressure_sealevel;temperature;humidity
34658;BME280;20865;43.312;27.152;2023-04-19T00:02:10;99974.98;;;20.60;48.01
34658;BME280;20865;43.312;27.152;2023-04-19T00:04:37;99976.56;;;20.57;48.20
34658;BME280;20865;43.312;27.152;2023-04-19T00:07:04;99977.46;;;20.57;48.40
34658;BME280;20865;43.312;27.152;2023-04-19T00:09:31;99978.19;;;20.59;48.54
34658;BME280;20865;43.312;27.152;2023-04-19T00:11:58;99969.69;;;20.58;48.60
34658;BME280;20865;43.312;27.152;2023-04-19T00:14:25;99971.91;;;20.59;48.52
34658;BME280;20865;43.312;27.152;2023-04-19T00:16:52;99968.42;;;20.57;48.61
34658;BME280;20865;43.312;27.152;2023-04-19T00:19:19;99971.54;;;20.58;48.45
34658;BME280;20865;43.312;27.152;2023-04-19T00:21:47;99969.78;;;20.57;48.22
34658;BME280;20865;43.312;27.152;2023-04-19T00:24:13;99962.01;;;20.52;48.27
34658;BME280;20865;43.312;27.152;2023-04-19T00:26:40;99957.84;;;20.54;48.44
34658;BME280;20865;43.312;27.152;2023-04-19T00:29:07;99954.37;;;20.52;48.44
34658;BME280;20865;43.312;27.152;2023-04-19T00:31:34;99951.92;;;20.54;48.10
34658;BME280;20865;43.312;27.152;2023-04-19T00:34:01;99953.38;;;20.53;48.12
34658;BME280;20865;43.312;27.152;2023-04-19T00:36:27;99957.34;;;20.54;47.98
34658;BME280;20865;43.312;27.152;2023-04-19T00:38:54;99953.38;;;20.53;47.80
34658;BME280;20865;43.312;27.152;2023-04-19T00:41:21;99947.58;;;20.52;47.64
34658;BME280;20865;43.312;27.152;2023-04-19T00:43:48;99956.05;;;20.47;47.69
34658;BME280;20865;43.312;27.152;2023-04-19T00:46:14;99952.70;;;20.43;47.83
34658;BME280;20865;43.312;27.152;2023-04-19T00:48:41;99946.88;;;20.37;47.94
34658;BME280;20865;43.312;27.152;2023-04-19T00:51:08;99951.19;;;20.39;47.70
34658;BME280;20865;43.312;27.152;2023-04-19T00:53:35;99951.19;;;20.39;47.52
34658;BME280;20865;43.312;27.152;2023-04-19T00:56:02;99948.73;;;20.42;47.36
34658;BME280;20865;43.312;27.152;2023-04-19T00:58:29;99947.61;;;20.39;47.41
34658;BME280;20865;43.312;27.152;2023-04-19T01:00:57;99946.02;;;20.42;47.41
34658;BME280;20865;43.312;27.152;2023-04-19T01:03:24;99944.17;;;20.37;47.67
34658;BME280;20865;43.312;27.152;2023-04-19T01:05:54;99937.75;;;20.38;47.86
34658;BME280;20865;43.312;27.152;2023-04-19T01:08:21;99944.17;;;20.37;48.10
34658;BME280;20865;43.312;27.152;2023-04-19T01:10:48;99940.83;;;20.33;48.18
34658;BME280;20865;43.312;27.152;2023-04-19T01:13:15;99936.36;;;20.32;48.27
34658;BME280;20865;43.312;27.152;2023-04-19T01:15:42;99939.47;;;20.33;48.28
34658;BME280;20865;43.312;27.152;2023-04-19T01:18:09;99934.41;;;20.34;48.40
34658;BME280;20865;43.312;27.152;2023-04-19T01:20:36;99938.61;;;20.33;48.38
34658;BME280;20865;43.312;27.152;2023-04-19T01:23:03;99929.35;;;20.35;48.43
34658;BME280;20865;43.312;27.152;2023-04-19T01:25:30;99929.35;;;20.35;48.37
34658;BME280;20865;43.312;27.152;2023-04-19T01:27:56;99923.93;;;20.35;48.28
34658;BME280;20865;43.312;27.152;2023-04-19T01:30:23;99922.20;;;20.34;48.33
34658;BME280;20865;43.312;27.152;2023-04-19T01:32:50;99923.89;;;20.24;48.25
34658;BME280;20865;43.312;27.152;2023-04-19T01:35:17;99924.25;;;20.25;48.28
34658;BME280;20865;43.312;27.152;2023-04-19T01:37:44;99918.83;;;20.19;48.16
34658;BME280;20865;43.312;27.152;2023-04-19T01:40:11;99919.92;;;20.17;48.24
34658;BME280;20865;43.312;27.152;2023-04-19T01:42:38;99922.27;;;20.16;48.04
34658;BME280;20865;43.312;27.152;2023-04-19T01:45:05;99928.91;;;20.17;47.92
34658;BME280;20865;43.312;27.152;2023-04-19T01:47:32;99920.38;;;20.11;48.04
34658;BME280;20865;43.312;27.152;2023-04-19T01:49:59;99925.39;;;20.04;48.09
34658;BME280;20865;43.312;27.152;2023-04-19T01:52:25;99915.75;;;19.94;47.86
34658;BME280;20865;43.312;27.152;2023-04-19T01:54:52;99916.16;;;19.83;48.09
34658;BME280;20865;43.312;27.152;2023-04-19T01:57:19;99919.73;;;19.83;48.11
34658;BME280;20865;43.312;27.152;2023-04-19T01:59:46;99919.57;;;19.61;48.58
34658;BME280;20865;43.312;27.152;2023-04-19T02:02:13;99917.94;;;19.58;48.44
34658;BME280;20865;43.312;27.152;2023-04-19T02:04:39;99918.39;;;19.65;48.38
34658;BME280;20865;43.312;27.152;2023-04-19T02:07:06;99923.50;;;19.62;48.26
34658;BME280;20865;43.312;27.152;2023-04-19T02:09:36;99922.73;;;19.67;48.44
34658;BME280;20865;43.312;27.152;2023-04-19T02:12:04;99915.95;;;19.55;48.54
34658;BME280;20865;43.312;27.152;2023-04-19T02:14:31;99920.34;;;19.63;48.41
34658;BME280;20865;43.312;27.152;2023-04-19T02:16:57;99922.23;;;19.68;48.49
34658;BME280;20865;43.312;27.152;2023-04-19T02:19:24;99918.22;;;19.61;48.26
34658;BME280;20865;43.312;27.152;2023-04-19T02:21:51;99914.92;;;19.63;48.28
34658;BME280;20865;43.312;27.152;2023-04-19T02:24:19;99917.94;;;19.58;48.15
34658;BME280;20865;43.312;27.152;2023-04-19T02:26:46;99912.52;;;19.58;48.27
34658;BME280;20865;43.312;27.152;2023-04-19T02:29:13;99910.09;;;19.42;48.33
34658;BME280;20865;43.312;27.152;2023-04-19T02:31:41;99915.59;;;19.59;48.25
34658;BME280;20865;43.312;27.152;2023-04-19T02:34:09;99912.61;;;19.64;48.25
34658;BME280;20865;43.312;27.152;2023-04-19T02:36:36;99913.29;;;19.60;48.21
34658;BME280;20865;43.312;27.152;2023-04-19T02:39:03;99906.97;;;19.67;48.19
34658;BME280;20865;43.312;27.152;2023-04-19T02:41:30;99907.42;;;19.66;48.13
34658;BME280;20865;43.312;27.152;2023-04-19T02:43:57;99906.25;;;19.70;47.94
34658;BME280;20865;43.312;27.152;2023-04-19T02:46:24;99905.53;;;19.74;47.76
34658;BME280;20865;43.312;27.152;2023-04-19T02:48:51;99907.47;;;19.59;47.93
34658;BME280;20865;43.312;27.152;2023-04-19T02:51:17;99903.27;;;19.68;47.55
34658;BME280;20865;43.312;27.152;2023-04-19T02:53:44;99899.92;;;19.64;47.75
34658;BME280;20865;43.312;27.152;2023-04-19T02:56:11;99901.42;;;19.56;47.56
34658;BME280;20865;43.312;27.152;2023-04-19T02:58:38;99905.84;;;19.38;47.67
34658;BME280;20865;43.312;27.152;2023-04-19T03:01:05;99899.97;;;19.39;47.64
34658;BME280;20865;43.312;27.152;2023-04-19T03:03:32;99900.85;;;19.45;47.53
34658;BME280;20865;43.312;27.152;2023-04-19T03:05:59;99904.42;;;19.45;47.64
34658;BME280;20865;43.312;27.152;2023-04-19T03:08:25;99905.91;;;19.31;47.79
34658;BME280;20865;43.312;27.152;2023-04-19T03:10:52;99901.05;;;19.36;47.92
34658;BME280;20865;43.312;27.152;2023-04-19T03:13:19;99897.28;;;19.26;48.19
34658;BME280;20865;43.312;27.152;2023-04-19T03:15:46;99898.33;;;19.18;48.07
34658;BME280;20865;43.312;27.152;2023-04-19T03:18:13;99895.63;;;19.18;48.25
34658;BME280;20865;43.312;27.152;2023-04-19T03:20:41;99898.70;;;19.19;48.25
34658;BME280;20865;43.312;27.152;2023-04-19T03:23:08;99893.44;;;19.10;48.39
34658;BME280;20865;43.312;27.152;2023-04-19T03:25:35;99899.28;;;19.17;48.35
34658;BME280;20865;43.312;27.152;2023-04-19T03:28:02;99898.14;;;19.14;48.33
34658;BME280;20865;43.312;27.152;2023-04-19T03:30:29;99896.08;;;19.17;48.14
34658;BME280;20865;43.312;27.152;2023-04-19T03:32:56;99900.48;;;19.25;48.05
34658;BME280;20865;43.312;27.152;2023-04-19T03:35:24;99897.34;;;19.19;48.11
34658;BME280;20865;43.312;27.152;2023-04-19T03:37:51;99899.44;;;19.21;47.98
34658;BME280;20865;43.312;27.152;2023-04-19T03:40:18;99900.63;;;19.17;48.20
34658;BME280;20865;43.312;27.152;2023-04-19T03:42:45;99901.98;;;19.17;48.00
34658;BME280;20865;43.312;27.152;2023-04-19T03:45:12;99903.25;;;19.18;47.99
34658;BME280;20865;43.312;27.152;2023-04-19T03:47:38;99895.98;;;19.19;48.11
34658;BME280;20865;43.312;27.152;2023-04-19T03:50:06;99902.42;;;19.11;48.07
34658;BME280;20865;43.312;27.152;2023-04-19T03:52:32;99899.83;;;19.22;48.01
34658;BME280;20865;43.312;27.152;2023-04-19T03:54:59;99899.19;;;19.18;47.94
34658;BME280;20865;43.312;27.152;2023-04-19T03:57:26;99904.41;;;19.27;48.15
34658;BME280;20865;43.312;27.152;2023-04-19T03:59:53;99895.65;;;19.23;47.92
34658;BME280;20865;43.312;27.152;2023-04-19T04:02:20;99909.12;;;19.31;47.92
34658;BME280;20865;43.312;27.152;2023-04-19T04:04:51;99910.47;;;19.31;47.99
34658;BME280;20865;43.312;27.152;2023-04-19T04:07:15;99910.89;;;19.37;47.29
34658;BME280;20865;43.312;27.152;2023-04-19T04:09:42;99911.66;;;19.39;47.26
34658;BME280;20865;43.312;27.152;2023-04-19T04:12:09;99911.17;;;19.40;47.21
34658;BME280;20865;43.312;27.152;2023-04-19T04:14:38;99918.93;;;19.39;47.29
34658;BME280;20865;43.312;27.152;2023-04-19T04:17:04;99915.25;;;19.45;47.24
34658;BME280;20865;43.312;27.152;2023-04-19T04:19:31;99913.53;;;19.44;46.93
34658;BME280;20865;43.312;27.152;2023-04-19T04:21:58;99917.17;;;19.38;46.54
34658;BME280;20865;43.312;27.152;2023-04-19T04:24:25;99911.66;;;19.39;46.81
34658;BME280;20865;43.312;27.152;2023-04-19T04:26:52;99915.17;;;19.34;47.13
34658;BME280;20865;43.312;27.152;2023-04-19T04:29:19;99915.58;;;19.35;47.20
34658;BME280;20865;43.312;27.152;2023-04-19T04:31:46;99916.59;;;19.40;46.88
34658;BME280;20865;43.312;27.152;2023-04-19T04:34:13;99920.22;;;19.33;46.74
34658;BME280;20865;43.312;27.152;2023-04-19T04:36:39;99924.22;;;19.40;46.81
34658;BME280;20865;43.312;27.152;2023-04-19T04:39:06;99921.45;;;19.35;46.79
34658;BME280;20865;43.312;27.152;2023-04-19T04:41:35;99924.59;;;19.41;46.89
34658;BME280;20865;43.312;27.152;2023-04-19T04:44:02;99929.51;;;19.42;46.89
34658;BME280;20865;43.312;27.152;2023-04-19T04:46:29;99920.52;;;19.41;47.00
34658;BME280;20865;43.312;27.152;2023-04-19T04:48:56;99921.56;;;19.46;47.02
34658;BME280;20865;43.312;27.152;2023-04-19T04:51:23;99923.28;;;19.47;46.97
34658;BME280;20865;43.312;27.152;2023-04-19T04:53:50;99922.79;;;19.47;46.64
34658;BME280;20865;43.312;27.152;2023-04-19T04:56:17;99920.44;;;19.30;46.81
34658;BME280;20865;43.312;27.152;2023-04-19T04:58:44;99919.39;;;19.38;46.87
34658;BME280;20865;43.312;27.152;2023-04-19T05:01:11;99918.95;;;19.44;46.98
34658;BME280;20865;43.312;27.152;2023-04-19T05:03:38;99924.86;;;19.44;47.11
34658;BME280;20865;43.312;27.152;2023-04-19T05:06:05;99925.48;;;19.29;47.57
34658;BME280;20865;43.312;27.152;2023-04-19T05:08:32;99922.86;;;19.40;47.31
34658;BME280;20865;43.312;27.152;2023-04-19T05:10:59;99922.09;;;19.38;47.25
34658;BME280;20865;43.312;27.152;2023-04-19T05:13:25;99926.56;;;19.39;47.33
34658;BME280;20865;43.312;27.152;2023-04-19T05:15:52;99921.23;;;19.38;47.18
34658;BME280;20865;43.312;27.152;2023-04-19T05:18:19;99929.86;;;19.37;47.33
34658;BME280;20865;43.312;27.152;2023-04-19T05:20:46;99929.27;;;19.39;47.53
34658;BME280;20865;43.312;27.152;2023-04-19T05:23:13;99934.47;;;19.42;47.72
34658;BME280;20865;43.312;27.152;2023-04-19T05:25:39;99932.00;;;19.45;47.72
34658;BME280;20865;43.312;27.152;2023-04-19T05:28:06;99936.77;;;19.41;47.38
34658;BME280;20865;43.312;27.152;2023-04-19T05:30:33;99940.27;;;19.49;47.21
34658;BME280;20865;43.312;27.152;2023-04-19T05:33:00;99936.92;;;19.45;47.32
34658;BME280;20865;43.312;27.152;2023-04-19T05:35:27;99943.70;;;19.45;47.29
34658;BME280;20865;43.312;27.152;2023-04-19T05:37:54;99941.23;;;19.42;47.41
34658;BME280;20865;43.312;27.152;2023-04-19T05:40:21;99945.17;;;19.44;47.28
34658;BME280;20865;43.312;27.152;2023-04-19T05:42:51;99943.46;;;19.30;47.39
34658;BME280;20865;43.312;27.152;2023-04-19T05:45:18;99945.58;;;19.07;47.46
34658;BME280;20865;43.312;27.152;2023-04-19T05:47:44;99948.11;;;19.28;47.51
34658;BME280;20865;43.312;27.152;2023-04-19T05:50:11;99944.45;;;19.29;47.60
34658;BME280;20865;43.312;27.152;2023-04-19T05:52:40;99941.89;;;19.33;47.36
34658;BME280;20865;43.312;27.152;2023-04-19T05:55:07;99941.73;;;19.29;47.39
34658;BME280;20865;43.312;27.152;2023-04-19T05:57:34;99937.89;;;19.26;47.66
34658;BME280;20865;43.312;27.152;2023-04-19T06:00:01;99942.66;;;19.22;47.92
34658;BME280;20865;43.312;27.152;2023-04-19T06:02:29;99940.66;;;19.32;47.83
34658;BME280;20865;43.312;27.152;2023-04-19T06:04:56;99946.88;;;19.26;47.75
34658;BME280;20865;43.312;27.152;2023-04-19T06:07:23;99939.13;;;19.27;47.36
34658;BME280;20865;43.312;27.152;2023-04-19T06:09:49;99949.59;;;19.26;47.47
34658;BME280;20865;43.312;27.152;2023-04-19T06:12:16;99945.00;;;19.21;47.79
34658;BME280;20865;43.312;27.152;2023-04-19T06:14:43;99943.86;;;19.18;47.66
34658;BME280;20865;43.312;27.152;2023-04-19T06:17:10;99943.19;;;19.27;47.83
34658;BME280;20865;43.312;27.152;2023-04-19T06:19:37;99941.52;;;19.32;47.98
34658;BME280;20865;43.312;27.152;2023-04-19T06:22:03;99943.39;;;19.37;48.02
34658;BME280;20865;43.312;27.152;2023-04-19T06:24:30;99947.67;;;19.34;47.98
34658;BME280;20865;43.312;27.152;2023-04-19T06:26:57;99949.25;;;19.31;47.75
34658;BME280;20865;43.312;27.152;2023-04-19T06:29:24;99942.75;;;19.34;47.77
34658;BME280;20865;43.312;27.152;2023-04-19T06:31:52;99948.44;;;19.36;47.81
34658;BME280;20865;43.312;27.152;2023-04-19T06:34:18;99955.00;;;19.39;47.80
34658;BME280;20865;43.312;27.152;2023-04-19T06:36:45;99946.38;;;19.27;48.22
34658;BME280;20865;43.312;27.152;2023-04-19T06:39:13;99951.30;;;19.27;48.15
34658;BME280;20865;43.312;27.152;2023-04-19T06:41:40;99956.97;;;19.12;48.89
34658;BME280;20865;43.312;27.152;2023-04-19T06:44:07;99955.77;;;19.28;48.49
34658;BME280;20865;43.312;27.152;2023-04-19T06:46:33;99962.20;;;19.33;48.39
34658;BME280;20865;43.312;27.152;2023-04-19T06:49:00;99963.46;;;19.22;48.31
34658;BME280;20865;43.312;27.152;2023-04-19T06:51:27;99961.34;;;19.20;48.18
34658;BME280;20865;43.312;27.152;2023-04-19T06:53:54;99954.66;;;19.31;47.80
34658;BME280;20865;43.312;27.152;2023-04-19T06:56:40;99961.02;;;19.12;48.31
34658;BME280;20865;43.312;27.152;2023-04-19T06:59:09;99966.16;;;19.09;48.71
34658;BME280;20865;43.312;27.152;2023-04-19T07:01:35;99966.28;;;19.08;48.66
34658;BME280;20865;43.312;27.152;2023-04-19T07:04:03;99962.44;;;19.04;48.61
34658;BME280;20865;43.312;27.152;2023-04-19T07:06:29;99964.94;;;19.08;48.54
34658;BME280;20865;43.312;27.152;2023-04-19T07:08:56;99958.25;;;19.06;48.00
34658;BME280;20865;43.312;27.152;2023-04-19T07:11:23;99969.77;;;18.77;48.32
34658;BME280;20865;43.312;27.152;2023-04-19T07:13:50;99970.05;;;18.79;48.18
34658;BME280;20865;43.312;27.152;2023-04-19T07:16:17;99972.27;;;18.80;48.57
34658;BME280;20865;43.312;27.152;2023-04-19T07:18:44;99985.22;;;18.95;48.38
34658;BME280;20865;43.312;27.152;2023-04-19T07:21:10;99981.93;;;18.97;48.42
34658;BME280;20865;43.312;27.152;2023-04-19T07:23:37;99987.99;;;19.00;48.33
34658;BME280;20865;43.312;27.152;2023-04-19T07:26:04;99988.89;;;19.07;48.38
34658;BME280;20865;43.312;27.152;2023-04-19T07:28:31;99988.31;;;19.09;48.59
34658;BME280;20865;43.312;27.152;2023-04-19T07:30:58;99990.00;;;19.04;48.32
34658;BME280;20865;43.312;27.152;2023-04-19T07:33:25;99997.30;;;19.09;48.26
34658;BME280;20865;43.312;27.152;2023-04-19T07:35:53;99998.96;;;19.17;48.35
34658;BME280;20865;43.312;27.152;2023-04-19T07:38:21;99996.91;;;19.21;48.47
34658;BME280;20865;43.312;27.152;2023-04-19T07:40:49;99999.61;;;19.21;48.49
34658;BME280;20865;43.312;27.152;2023-04-19T07:43:16;99997.67;;;19.23;48.76
34658;BME280;20865;43.312;27.152;2023-04-19T07:45:43;100001.59;;;19.32;48.51
34658;BME280;20865;43.312;27.152;2023-04-19T07:48:10;100002.70;;;19.35;48.35
34658;BME280;20865;43.312;27.152;2023-04-19T07:50:37;100003.75;;;19.39;47.93
34658;BME280;20865;43.312;27.152;2023-04-19T07:53:03;100004.89;;;19.42;47.97
34658;BME280;20865;43.312;27.152;2023-04-19T07:55:30;100001.69;;;19.43;48.00
34658;BME280;20865;43.312;27.152;2023-04-19T07:57:57;99997.62;;;19.30;48.14
34658;BME280;20865;43.312;27.152;2023-04-19T08:00:24;100004.95;;;19.35;48.55
34658;BME280;20865;43.312;27.152;2023-04-19T08:02:51;100005.84;;;19.41;48.61
34658;BME280;20865;43.312;27.152;2023-04-19T08:05:17;100004.89;;;19.42;48.67
34658;BME280;20865;43.312;27.152;2023-04-19T08:07:44;100005.90;;;19.34;48.51
34658;BME280;20865;43.312;27.152;2023-04-19T08:10:11;100005.38;;;19.29;48.39
34658;BME280;20865;43.312;27.152;2023-04-19T08:12:38;100004.78;;;19.18;48.64
34658;BME280;20865;43.312;27.152;2023-04-19T08:15:06;100002.16;;;19.17;48.22
34658;BME280;20865;43.312;27.152;2023-04-19T08:17:33;100004.28;;;19.19;48.44
34658;BME280;20865;43.312;27.152;2023-04-19T08:20:00;100007.67;;;19.28;48.46
34658;BME280;20865;43.312;27.152;2023-04-19T08:22:27;100017.93;;;19.30;48.76
34658;BME280;20865;43.312;27.152;2023-04-19T08:24:54;100010.95;;;19.33;48.66
34658;BME280;20865;43.312;27.152;2023-04-19T08:27:21;100012.23;;;19.27;48.11
34658;BME280;20865;43.312;27.152;2023-04-19T08:29:48;100014.95;;;19.15;48.33
34658;BME280;20865;43.312;27.152;2023-04-19T08:32:14;100016.70;;;19.28;48.02
34658;BME280;20865;43.312;27.152;2023-04-19T08:34:41;100024.61;;;19.32;48.04
34658;BME280;20865;43.312;27.152;2023-04-19T08:37:08;100010.95;;;19.33;48.10
34658;BME280;20865;43.312;27.152;2023-04-19T08:39:35;100013.94;;;19.36;47.99
34658;BME280;20865;43.312;27.152;2023-04-19T08:42:02;100017.34;;;19.32;48.08
34658;BME280;20865;43.312;27.152;2023-04-19T08:44:30;100016.73;;;19.34;48.32
34658;BME280;20865;43.312;27.152;2023-04-19T08:46:57;100021.44;;;19.38;48.37
34658;BME280;20865;43.312;27.152;2023-04-19T08:49:24;100021.14;;;19.42;48.06
34658;BME280;20865;43.312;27.152;2023-04-19T08:51:51;100016.67;;;19.41;48.31
34658;BME280;20865;43.312;27.152;2023-04-19T08:54:18;100021.02;;;19.44;48.32
34658;BME280;20865;43.312;27.152;2023-04-19T08:56:45;100021.78;;;19.46;48.40
34658;BME280;20865;43.312;27.152;2023-04-19T08:59:12;100021.66;;;19.47;48.47
34658;BME280;20865;43.312;27.152;2023-04-19T09:01:39;100022.73;;;19.45;48.44
34658;BME280;20865;43.312;27.152;2023-04-19T09:04:06;100028.31;;;19.49;48.38
34658;BME280;20865;43.312;27.152;2023-04-19T09:06:36;100029.66;;;19.49;48.49
34658;BME280;20865;43.312;27.152;2023-04-19T09:09:17;100022.09;;;19.54;48.35
34658;BME280;20865;43.312;27.152;2023-04-19T09:11:44;100025.45;;;19.58;48.13
34658;BME280;20865;43.312;27.152;2023-04-19T09:14:12;100032.22;;;19.58;48.19
34658;BME280;20865;43.312;27.152;2023-04-19T09:16:39;100033.45;;;19.59;48.34
34658;BME280;20865;43.312;27.152;2023-04-19T09:19:06;100029.30;;;19.61;48.21
34658;BME280;20865;43.312;27.152;2023-04-19T09:21:38;100030.47;;;19.64;48.29
34658;BME280;20865;43.312;27.152;2023-04-19T09:24:05;100026.80;;;19.58;48.06
34658;BME280;20865;43.312;27.152;2023-04-19T09:26:32;100027.36;;;19.50;48.23
34658;BME280;20865;43.312;27.152;2023-04-19T09:29:00;100026.43;;;19.57;47.99
34658;BME280;20865;43.312;27.152;2023-04-19T09:31:31;100029.94;;;19.51;48.09
34658;BME280;20865;43.312;27.152;2023-04-19T09:34:11;100030.06;;;19.37;48.26
34658;BME280;20865;43.312;27.152;2023-04-19T09:36:27;100027.94;;;19.48;48.09
34658;BME280;20865;43.312;27.152;2023-04-19T09:38:54;100026.06;;;19.43;48.26
34658;BME280;20865;43.312;27.152;2023-04-19T09:41:20;100026.92;;;19.43;48.04
34658;BME280;20865;43.312;27.152;2023-04-19T09:43:47;100024.73;;;19.48;48.36
34658;BME280;20865;43.312;27.152;2023-04-19T09:46:33;100024.92;;;19.53;48.72
34658;BME280;20865;43.312;27.152;2023-04-19T09:51:42;100018.67;;;19.58;48.42
34658;BME280;20865;43.312;27.152;2023-04-19T09:54:10;100027.14;;;19.53;48.59
34658;BME280;20865;43.312;27.152;2023-04-19T09:56:37;100029.52;;;19.19;48.37
34658;BME280;20865;43.312;27.152;2023-04-19T09:59:04;100023.84;;;19.42;48.10
34658;BME280;20865;43.312;27.152;2023-04-19T10:01:37;100031.63;;;19.47;48.52
34658;BME280;20865;43.312;27.152;2023-04-19T10:04:06;100026.80;;;19.58;48.82
34658;BME280;20865;43.312;27.152;2023-04-19T10:06:33;100032.38;;;19.62;48.47
34658;BME280;20865;43.312;27.152;2023-04-19T10:09:02;100030.16;;;19.48;48.67
34658;BME280;20865;43.312;27.152;2023-04-19T10:11:34;100031.45;;;19.56;48.68
34658;BME280;20865;43.312;27.152;2023-04-19T10:13:59;100031.61;;;19.67;48.47
34658;BME280;20865;43.312;27.152;2023-04-19T10:16:27;100033.11;;;19.71;48.43
34658;BME280;20865;43.312;27.152;2023-04-19T10:18:55;100029.78;;;19.60;48.29
34658;BME280;20865;43.312;27.152;2023-04-19T10:21:23;100023.63;;;19.71;48.45
34658;BME280;20865;43.312;27.152;2023-04-19T10:23:52;100030.05;;;19.75;48.25
34658;BME280;20865;43.312;27.152;2023-04-19T10:26:19;100022.22;;;19.84;48.43
34658;BME280;20865;43.312;27.152;2023-04-19T10:28:46;100025.34;;;19.72;48.40
34658;BME280;20865;43.312;27.152;2023-04-19T10:31:13;100028.36;;;19.80;48.53
34658;BME280;20865;43.312;27.152;2023-04-19T10:33:40;100017.84;;;19.88;48.31
34658;BME280;20865;43.312;27.152;2023-04-19T10:36:08;100017.98;;;19.92;48.11
34658;BME280;20865;43.312;27.152;2023-04-19T10:38:36;100026.00;;;19.94;47.71
34658;BME280;20865;43.312;27.152;2023-04-19T10:41:03;100019.22;;;19.94;47.49
34658;BME280;20865;43.312;27.152;2023-04-19T10:43:32;100025.55;;;19.82;47.52
34658;BME280;20865;43.312;27.152;2023-04-19T10:46:00;100017.08;;;19.86;47.61
34658;BME280;20865;43.312;27.152;2023-04-19T10:51:13;100018.77;;;19.63;46.98
34658;BME280;20865;43.312;27.152;2023-04-19T10:53:43;100014.02;;;19.91;47.42
34658;BME280;20865;43.312;27.152;2023-04-19T10:56:15;100014.13;;;20.02;47.87
34658;BME280;20865;43.312;27.152;2023-04-19T11:06:59;100004.94;;;20.34;48.20
34658;BME280;20865;43.312;27.152;2023-04-19T11:09:37;100003.48;;;20.41;47.54
34658;BME280;20865;43.312;27.152;2023-04-19T11:12:07;100004.26;;;20.49;47.12
34658;BME280;20865;43.312;27.152;2023-04-19T11:14:39;99996.69;;;20.54;47.42
34658;BME280;20865;43.312;27.152;2023-04-19T11:17:41;100002.02;;;20.61;47.17
34658;BME280;20865;43.312;27.152;2023-04-19T11:19:53;100000.89;;;20.64;47.16
34658;BME280;20865;43.312;27.152;2023-04-19T11:22:25;100000.56;;;20.68;47.31
34658;BME280;20865;43.312;27.152;2023-04-19T11:24:51;99999.97;;;20.76;47.38
34658;BME280;20865;43.312;27.152;2023-04-19T11:27:21;99994.67;;;20.80;47.38
34658;BME280;20865;43.312;27.152;2023-04-19T11:29:48;99987.17;;;20.89;47.45
34658;BME280;20865;43.312;27.152;2023-04-19T11:32:19;99983.72;;;20.99;47.54
34658;BME280;20865;43.312;27.152;2023-04-19T11:34:46;99983.38;;;21.09;47.62
34658;BME280;20865;43.312;27.152;2023-04-19T11:37:13;99985.98;;;21.16;47.24
34658;BME280;20865;43.312;27.152;2023-04-19T11:39:45;99986.23;;;21.18;47.32
34658;BME280;20865;43.312;27.152;2023-04-19T11:42:16;99982.41;;;21.27;46.91
34658;BME280;20865;43.312;27.152;2023-04-19T11:44:47;99981.45;;;21.28;46.70
34658;BME280;20865;43.312;27.152;2023-04-19T11:47:12;99987.10;;;21.30;46.92
34658;BME280;20865;43.312;27.152;2023-04-19T11:49:39;99985.87;;;21.29;47.11
34658;BME280;20865;43.312;27.152;2023-04-19T11:52:06;99979.45;;;21.30;46.18
34658;BME280;20865;43.312;27.152;2023-04-19T11:54:33;99982.92;;;21.32;46.73
34658;BME280;20865;43.312;27.152;2023-04-19T11:57:04;99982.55;;;21.25;46.66
34658;BME280;20865;43.312;27.152;2023-04-19T11:59:31;99979.84;;;20.73;45.46
34658;BME280;20865;43.312;27.152;2023-04-19T12:02:08;99979.55;;;20.54;46.12
34658;BME280;20865;43.312;27.152;2023-04-19T12:05:11;99980.66;;;20.38;45.17
34658;BME280;20865;43.312;27.152;2023-04-19T12:07:57;99972.75;;;20.35;46.21
34658;BME280;20865;43.312;27.152;2023-04-19T12:10:24;99970.94;;;20.41;46.91
34658;BME280;20865;43.312;27.152;2023-04-19T12:12:51;99969.71;;;20.40;46.79
34658;BME280;20865;43.312;27.152;2023-04-19T12:15:18;99977.77;;;20.05;47.11
34658;BME280;20865;43.312;27.152;2023-04-19T12:18:01;99966.52;;;19.80;47.06
34658;BME280;20865;43.312;27.152;2023-04-19T12:20:28;99962.47;;;19.98;47.19
34658;BME280;20865;43.312;27.152;2023-04-19T12:22:55;99965.85;;;19.89;47.60
34658;BME280;20865;43.312;27.152;2023-04-19T12:25:26;99964.06;;;20.01;47.49
34658;BME280;20865;43.312;27.152;2023-04-19T12:27:51;99957.77;;;19.94;46.98
34658;BME280;20865;43.312;27.152;2023-04-19T12:30:17;99958.59;;;20.13;46.93
34658;BME280;20865;43.312;27.152;2023-04-19T12:32:44;99953.49;;;20.27;46.98
34658;BME280;20865;43.312;27.152;2023-04-19T12:35:11;99950.69;;;20.34;46.41
34658;BME280;20865;43.312;27.152;2023-04-19T12:37:38;99956.52;;;20.46;45.99
34658;BME280;20865;43.312;27.152;2023-04-19T12:40:05;99954.92;;;20.50;45.69
34658;BME280;20865;43.312;27.152;2023-04-19T12:42:32;99953.67;;;20.61;45.28
34658;BME280;20865;43.312;27.152;2023-04-19T12:44:59;99950.95;;;20.61;45.33
34658;BME280;20865;43.312;27.152;2023-04-19T12:47:26;99953.27;;;20.54;45.53
34658;BME280;20865;43.312;27.152;2023-04-19T12:49:53;99939.50;;;20.68;45.60
34658;BME280;20865;43.312;27.152;2023-04-19T12:52:21;99936.91;;;20.73;45.60
34658;BME280;20865;43.312;27.152;2023-04-19T12:54:48;99938.16;;;20.80;45.29
34658;BME280;20865;43.312;27.152;2023-04-19T12:57:15;99940.27;;;20.87;45.32
34658;BME280;20865;43.312;27.152;2023-04-19T12:59:42;99941.65;;;20.93;45.04
34658;BME280;20865;43.312;27.152;2023-04-19T13:02:08;99939.81;;;20.99;44.56
34658;BME280;20865;43.312;27.152;2023-04-19T13:04:35;99931.17;;;21.00;44.69